Chadstone Weather > Observations for 03/10/20

Select Day:



Observations
Time Temp Hum DP Wind Gust Dir Rain >9am Press
C % C kph kph mm hPa
00:00 22.1 50 11.2 12.9 27.0 NNE 0.0 1022.7
00:10 22.3 48 10.8 13.8 31.7 NNE 0.0 1022.9
00:20 22.4 48 10.9 17.1 29.5 N 0.0 1022.7
00:30 22.5 47 10.6 18.1 40.3 N 0.0 1022.8
00:40 22.5 46 10.3 17.9 35.6 NNE 0.0 1022.8
00:50 22.4 47 10.5 14.1 27.0 NNE 0.0 1022.8
01:00 22.2 47 10.4 11.1 23.4 NNE 0.0 1022.8
01:10 22.1 47 10.3 10.1 25.6 NNW 0.0 1022.9
01:20 22.1 47 10.3 10.1 23.4 NNE 0.0 1022.9
01:30 22.0 47 10.2 10.5 23.4 N 0.0 1022.8
01:40 22.1 46 10.0 12.8 25.6 N 0.0 1022.8
01:50 22.2 45 9.7 14.9 29.5 NNE 0.0 1022.9
02:00 22.4 44 9.6 14.8 28.1 N 0.0 1022.9
02:10 22.5 44 9.7 18.2 33.1 NNE 0.0 1022.8
02:20 22.6 43 9.4 18.7 39.2 N 0.0 1022.9
02:30 22.7 43 9.5 22.7 40.3 N 0.0 1022.9
02:40 22.7 43 9.5 21.8 47.9 NNW 0.0 1023.0
02:50 22.4 44 9.6 16.2 30.6 N 0.0 1022.6
03:00 22.4 44 9.6 19.1 36.7 N 0.0 1022.5
03:10 22.2 44 9.4 19.2 31.7 NNE 0.0 1022.4
03:20 22.0 45 9.5 16.8 27.0 N 0.0 1022.3
03:30 21.7 48 10.2 15.2 29.5 N 0.0 1022.5
03:40 21.3 49 10.2 15.6 25.6 N 0.0 1022.5
03:50 21.2 50 10.4 16.4 35.6 N 0.0 1022.4
04:00 21.1 50 10.3 16.2 36.7 NNE 0.0 1022.5
04:10 21.0 50 10.2 16.5 31.7 N 0.0 1022.6
04:20 21.0 49 9.9 16.8 36.7 NNE 0.0 1022.7
04:30 21.0 49 9.9 16.5 36.7 NNE 0.0 1022.8
04:40 21.1 48 9.7 18.0 41.8 NNE 0.0 1022.9
04:50 21.1 47 9.4 16.1 31.7 NNE 0.0 1022.8
05:00 21.0 47 9.3 17.4 33.1 N 0.0 1023.1
05:10 21.0 47 9.3 14.7 36.7 NNW 0.0 1023.3
05:20 20.9 48 9.5 17.3 31.7 N 0.0 1023.4
05:30 20.8 48 9.4 16.5 30.6 NNW 0.0 1023.5
05:40 20.7 48 9.3 14.4 27.0 N 0.0 1023.5
05:50 20.7 47 9.0 14.6 27.0 N 0.0 1023.7
06:00 20.7 47 9.0 16.5 37.8 NNE 0.0 1023.8
06:10 20.7 47 9.0 18.8 36.7 N 0.0 1023.8
06:20 20.8 46 8.8 15.9 36.7 NNW 0.0 1024.0
06:30 20.8 46 8.8 14.9 33.1 NNE 0.0 1023.9
06:40 20.8 46 8.8 10.9 27.0 NNW 0.0 1024.0
06:50 20.9 46 8.9 15.5 30.6 N 0.0 1024.1
07:00 21.0 45 8.6 14.0 35.6 NNW 0.0 1024.3
07:10 21.2 45 8.8 11.1 20.9 NW 0.0 1024.2
07:20 21.4 45 9.0 11.3 22.0 N 0.0 1024.1
07:30 21.7 44 8.9 12.3 27.0 NNW 0.0 1024.0
07:40 21.9 44 9.1 15.6 28.1 N 0.0 1024.3
07:50 22.2 43 9.0 15.5 27.0 NNE 0.0 1024.3
08:00 22.4 42 8.9 15.3 28.1 NNW 0.0 1024.3
08:10 22.6 42 9.1 15.6 27.0 N 0.0 1024.3
08:20 22.9 42 9.3 16.9 28.1 NNE 0.0 1024.3
08:30 23.3 42 9.7 14.6 24.5 NNW 0.0 1024.2
08:40 23.5 41 9.5 18.0 31.7 N 0.0 1023.8
08:50 23.8 41 9.8 15.3 24.5 N 0.0 1024.0
09:00 24.1 39 9.3 16.5 29.5 NNE 0.0 1024.0
09:10 24.3 39 9.5 18.9 37.8 N 0.0 1023.8
09:20 24.9 38 9.6 22.4 37.8 N 0.0 1023.7
09:30 25.5 36 9.4 15.5 33.1 NNW 0.0 1023.6
09:40 25.8 35 9.2 22.0 42.8 NW 0.0 1023.7
09:50 26.0 34 8.9 21.8 43.9 N 0.0 1024.2
10:00 26.3 34 9.2 21.0 39.2 NW 0.0 1024.2
10:10 26.2 34 9.1 22.6 40.3 NNW 0.0 1024.2
10:20 26.2 34 9.1 20.9 46.4 NNW 0.0 1023.8
10:30 25.8 36 9.6 21.4 49.0 N 0.0 1023.5
10:40 26.1 35 9.5 21.6 49.0 NNE 0.0 1023.1
10:50 26.1 34 9.0 26.1 51.5 NNW 0.0 1023.0
11:00 26.6 34 9.5 24.5 47.9 N 0.0 1022.9
11:10 26.9 34 9.7 24.0 46.4 N 0.0 1022.7
11:20 27.3 33 9.6 22.7 47.9 NNW 0.0 1022.6
11:30 27.1 33 9.5 20.1 41.8 NW 0.0 1022.8
11:40 27.2 33 9.6 20.3 37.8 NW 0.0 1022.7
11:50 27.6 33 9.9 23.0 45.4 NNW 0.0 1022.9
12:00 28.1 36 11.6 17.9 36.7 NNW 0.0 1022.8
12:10 28.3 36 11.8 18.2 39.2 NNW 0.0 1022.7
12:20 28.3 35 11.4 25.0 49.0 NNW 0.0 1022.9
12:30 28.4 36 11.9 16.9 31.7 NNW 0.0 1022.7
12:40 29.0 35 12.0 16.1 31.7 NNW 0.0 1022.6
12:50 29.0 34 11.6 16.0 35.6 NW 0.0 1022.5
13:00 29.1 34 11.7 17.3 28.1 NW 0.0 1022.2
13:10 28.0 36 11.6 19.7 34.2 WNW 0.0 1022.2
13:20 28.1 37 12.1 17.4 37.8 NNW 0.0 1021.9
13:30 27.8 35 11.0 20.0 39.2 NNW 0.0 1021.7
13:40 27.6 36 11.2 17.4 35.6 NNW 0.0 1021.4
13:50 27.3 36 10.9 19.5 37.8 NNW 0.0 1021.1
14:00 27.2 37 11.3 15.9 28.1 NNW 0.0 1021.1
14:10 27.2 36 10.9 17.6 37.8 N 0.0 1020.6
14:20 27.3 36 10.9 17.8 40.3 NNW 0.0 1020.3
14:30 27.5 35 10.7 24.7 40.3 NNW 0.0 1020.1
14:40 27.7 35 10.9 20.4 41.8 N 0.0 1020.0
14:50 28.0 36 11.6 20.6 40.3 NNW 0.0 1019.9
15:00 27.9 34 10.6 19.9 35.6 NNW 0.0 1019.8
15:10 27.9 34 10.6 21.7 43.9 N 0.0 1019.6
15:20 28.1 36 11.6 28.3 50.0 NNW 0.0 1019.6
15:30 28.1 36 11.6 19.0 41.8 NNW 0.0 1019.5
15:40 28.3 36 11.8 21.4 47.9 N 0.0 1019.4
15:50 28.6 36 12.1 24.6 42.8 NNW 0.0 1019.2
16:00 28.7 36 12.2 21.3 42.8 N 0.0 1019.1
16:10 28.6 35 11.7 23.3 41.8 N 0.0 1018.9
16:20 28.3 36 11.8 15.7 37.8 N 0.0 1019.0
16:30 28.3 37 12.2 20.6 49.0 NNW 0.0 1019.0
16:40 28.3 36 11.8 18.2 33.1 N 0.0 1019.0
16:50 28.6 35 11.7 17.4 37.8 N 0.0 1018.7
17:00 28.7 35 11.8 20.2 43.9 NNE 0.0 1018.9
17:10 28.6 35 11.7 16.3 35.6 NNW 0.0 1018.9
17:20 28.7 33 10.9 19.3 42.8 N 0.0 1019.2
17:30 28.7 33 10.9 18.5 43.9 N 0.0 1019.1
17:40 28.5 35 11.6 19.7 34.2 NNW 0.0 1019.5
17:50 28.1 35 11.2 17.3 34.2 NNW 0.0 1019.6
18:00 27.9 33 10.2 17.6 31.7 NNW 0.0 1019.9
18:10 27.8 33 10.1 16.6 33.1 NNW 0.0 1020.0
18:20 27.6 34 10.3 15.3 31.7 NNW 0.0 1020.0
18:30 27.4 35 10.6 15.9 31.7 N 0.0 1020.4
18:40 27.3 34 10.1 20.0 37.8 N 0.0 1020.4
18:50 27.1 34 9.9 19.3 35.6 N 0.0 1020.4
19:00 27.0 34 9.8 16.4 28.1 NNE 0.0 1020.4
19:10 26.8 35 10.1 13.7 31.7 N 0.0 1020.4
19:20 26.6 34 9.5 12.7 22.0 N 0.0 1019.8
19:30 26.4 33 8.9 11.8 19.4 NNW 0.0 1019.7
19:40 26.3 34 9.2 6.9 13.3 N 0.0 1020.0
19:50 25.8 36 9.6 3.8 12.2 WNW 0.0 1020.4
20:00 25.5 39 10.5 2.4 9.7 SSW 0.0 1020.7
20:10 24.5 44 11.5 2.7 11.2 SSW 0.0 1020.6
20:20 24.0 45 11.4 1.1 7.2 NW 0.0 1020.7
20:30 23.5 47 11.6 2.7 9.7 SSW 0.0 1020.9
20:40 22.7 48 11.1 2.5 8.6 SSE 0.0 1020.9
20:50 22.3 49 11.1 3.4 9.7 SE 0.0 1021.1
21:00 21.8 52 11.5 0.5 3.6 SW 0.0 1021.5
21:10 21.4 53 11.4 1.5 6.1 SE 0.0 1021.5
21:20 21.1 54 11.4 5.3 12.2 SSE 0.0 1021.7
21:30 20.9 55 11.5 6.1 14.8 SSE 0.0 1021.6
21:40 20.8 55 11.4 5.2 15.8 SSE 0.0 1021.8
21:50 20.7 55 11.3 5.3 13.3 SSE 0.0 1021.9
22:00 20.6 56 11.5 4.7 12.2 SSE 0.0 1021.9
22:10 20.4 56 11.3 2.7 6.1 SE 0.0 1021.7
22:20 20.2 57 11.4 4.8 11.2 SE 0.0 1021.7
22:30 19.8 59 11.6 4.2 9.7 SSE 0.0 1021.9
22:40 19.4 60 11.4 3.8 11.2 S 0.0 1021.9
22:50 19.3 61 11.6 4.9 11.2 S 0.0 1022.0
23:00 19.3 63 12.1 2.5 6.1 S 0.0 1022.0
23:10 19.2 63 12.0 3.5 9.7 SE 0.0 1022.1
23:20 19.1 64 12.1 1.9 7.2 E 0.0 1022.0
23:30 18.9 66 12.4 1.9 6.1 NNE 0.0 1021.8
23:40 18.6 66 12.1 1.1 3.6 NNW 0.0 1022.0
23:50 18.3 67 12.1 1.2 5.0 W 0.0 1021.7